sensor_id;sensor_type;location;lat;lon;timestamp;pressure;altitude;pressure_sealevel;temperature;humidity
10587;BME280;5341;47.606;7.576;2024-03-08T00:00:52;98503.56;;;8.82;58.93
10587;BME280;5341;47.606;7.576;2024-03-08T00:03:19;98502.09;;;8.80;58.50
10587;BME280;5341;47.606;7.576;2024-03-08T00:05:46;98505.75;;;8.79;58.64
10587;BME280;5341;47.606;7.576;2024-03-08T00:08:14;98498.97;;;8.76;58.68
10587;BME280;5341;47.606;7.576;2024-03-08T00:10:43;98503.47;;;8.76;58.68
10587;BME280;5341;47.606;7.576;2024-03-08T00:26:59;98483.03;;;9.29;56.55
10587;BME280;5341;47.606;7.576;2024-03-08T00:29:28;98491.69;;;9.08;57.15
10587;BME280;5341;47.606;7.576;2024-03-08T00:31:55;98487.16;;;8.94;57.32
10587;BME280;5341;47.606;7.576;2024-03-08T00:34:23;98483.06;;;8.83;57.64
10587;BME280;5341;47.606;7.576;2024-03-08T00:36:51;98484.78;;;8.76;57.77
10587;BME280;5341;47.606;7.576;2024-03-08T00:39:18;98486.50;;;8.69;57.80
10587;BME280;5341;47.606;7.576;2024-03-08T00:41:47;98484.19;;;8.66;58.34
10587;BME280;5341;47.606;7.576;2024-03-08T00:44:16;98487.41;;;8.61;58.02
10587;BME280;5341;47.606;7.576;2024-03-08T00:46:43;98482.41;;;8.58;58.12
10587;BME280;5341;47.606;7.576;2024-03-08T00:49:11;98476.44;;;8.56;58.14
10587;BME280;5341;47.606;7.576;2024-03-08T00:51:39;98478.63;;;8.52;58.07
10587;BME280;5341;47.606;7.576;2024-03-08T00:54:06;98480.47;;;8.52;58.20
10587;BME280;5341;47.606;7.576;2024-03-08T00:56:34;98474.66;;;8.48;58.08
10587;BME280;5341;47.606;7.576;2024-03-08T00:59:01;98475.81;;;8.46;58.23
10587;BME280;5341;47.606;7.576;2024-03-08T01:01:30;98474.16;;;8.45;58.12
10587;BME280;5341;47.606;7.576;2024-03-08T01:03:58;98465.50;;;8.43;58.19
10587;BME280;5341;47.606;7.576;2024-03-08T01:06:25;98464.88;;;8.41;58.39
10587;BME280;5341;47.606;7.576;2024-03-08T01:08:52;98473.03;;;8.39;58.27
10587;BME280;5341;47.606;7.576;2024-03-08T01:11:20;98467.88;;;8.38;58.74
10587;BME280;5341;47.606;7.576;2024-03-08T01:13:47;98462.75;;;8.36;58.21
10587;BME280;5341;47.606;7.576;2024-03-08T01:16:15;98464.72;;;8.34;58.15
10587;BME280;5341;47.606;7.576;2024-03-08T01:18:45;98463.03;;;8.33;58.38
10587;BME280;5341;47.606;7.576;2024-03-08T01:21:13;98457.88;;;8.32;58.17
10587;BME280;5341;47.606;7.576;2024-03-08T01:23:40;98446.56;;;8.30;58.29
10587;BME280;5341;47.606;7.576;2024-03-08T01:26:08;98445.75;;;8.29;58.17
10587;BME280;5341;47.606;7.576;2024-03-08T01:28:35;98439.78;;;8.27;58.02
10587;BME280;5341;47.606;7.576;2024-03-08T01:31:03;98439.13;;;8.25;58.38
10587;BME280;5341;47.606;7.576;2024-03-08T01:33:31;98441.94;;;8.23;58.51
10587;BME280;5341;47.606;7.576;2024-03-08T01:36:00;98428.81;;;8.22;58.11
10587;BME280;5341;47.606;7.576;2024-03-08T01:38:28;98429.97;;;8.19;57.89
10587;BME280;5341;47.606;7.576;2024-03-08T01:40:55;98428.31;;;8.18;58.16
10587;BME280;5341;47.606;7.576;2024-03-08T01:43:25;98418.69;;;8.17;58.17
10587;BME280;5341;47.606;7.576;2024-03-08T01:45:54;98412.72;;;8.15;58.10
10587;BME280;5341;47.606;7.576;2024-03-08T01:48:22;98409.41;;;8.13;57.92
10587;BME280;5341;47.606;7.576;2024-03-08T01:50:51;98412.25;;;8.12;58.09
10587;BME280;5341;47.606;7.576;2024-03-08T01:53:22;98407.88;;;8.11;58.07
10587;BME280;5341;47.606;7.576;2024-03-08T01:55:50;98400.25;;;8.08;58.04
10587;BME280;5341;47.606;7.576;2024-03-08T01:58:19;98398.78;;;8.05;57.97
10587;BME280;5341;47.606;7.576;2024-03-08T02:00:48;98387.31;;;8.05;58.12
10587;BME280;5341;47.606;7.576;2024-03-08T02:03:16;98383.97;;;8.03;58.17
10587;BME280;5341;47.606;7.576;2024-03-08T02:05:43;98384.16;;;8.01;58.07
10587;BME280;5341;47.606;7.576;2024-03-08T02:08:11;98378.00;;;8.01;58.08
10587;BME280;5341;47.606;7.576;2024-03-08T02:10:41;98370.19;;;7.99;58.09
10587;BME280;5341;47.606;7.576;2024-03-08T02:13:09;98369.53;;;7.97;57.87
10587;BME280;5341;47.606;7.576;2024-03-08T02:15:50;98366.03;;;7.97;57.99
10587;BME280;5341;47.606;7.576;2024-03-08T02:18:17;98370.88;;;7.93;57.93
10587;BME280;5341;47.606;7.576;2024-03-08T02:20:47;98370.06;;;7.92;58.05
10587;BME280;5341;47.606;7.576;2024-03-08T02:23:16;98359.78;;;7.89;57.86
10587;BME280;5341;47.606;7.576;2024-03-08T02:25:44;98360.78;;;7.88;57.98
10587;BME280;5341;47.606;7.576;2024-03-08T02:28:12;98360.91;;;7.87;57.85
10587;BME280;5341;47.606;7.576;2024-03-08T02:30:40;98362.94;;;7.85;57.81
10587;BME280;5341;47.606;7.576;2024-03-08T02:33:08;98363.13;;;7.83;57.74
10587;BME280;5341;47.606;7.576;2024-03-08T02:35:36;98351.81;;;7.81;57.70
10587;BME280;5341;47.606;7.576;2024-03-08T02:38:05;98352.81;;;7.80;57.88
10587;BME280;5341;47.606;7.576;2024-03-08T02:40:32;98352.00;;;7.80;57.85
10587;BME280;5341;47.606;7.576;2024-03-08T02:43:00;98354.00;;;7.78;57.88
10587;BME280;5341;47.606;7.576;2024-03-08T02:45:27;98355.84;;;7.77;57.90
10587;BME280;5341;47.606;7.576;2024-03-08T02:47:55;98345.53;;;7.74;57.90
10587;BME280;5341;47.606;7.576;2024-03-08T02:50:22;98348.19;;;7.74;57.91
10587;BME280;5341;47.606;7.576;2024-03-08T02:52:51;98353.69;;;7.73;57.75
10587;BME280;5341;47.606;7.576;2024-03-08T02:55:20;98354.69;;;7.72;58.19
10587;BME280;5341;47.606;7.576;2024-03-08T02:57:47;98355.69;;;7.71;57.90
10587;BME280;5341;47.606;7.576;2024-03-08T03:00:15;98347.88;;;7.69;57.92
10587;BME280;5341;47.606;7.576;2024-03-08T03:02:45;98343.56;;;7.68;57.94
10587;BME280;5341;47.606;7.576;2024-03-08T03:05:12;98343.75;;;7.67;57.75
10587;BME280;5341;47.606;7.576;2024-03-08T03:07:39;98339.59;;;7.64;57.80
10587;BME280;5341;47.606;7.576;2024-03-08T03:10:08;98337.91;;;7.63;57.76
10587;BME280;5341;47.606;7.576;2024-03-08T03:12:37;98327.47;;;7.61;58.01
10587;BME280;5341;47.606;7.576;2024-03-08T03:15:05;98327.63;;;7.60;57.99
10587;BME280;5341;47.606;7.576;2024-03-08T03:17:33;98319.84;;;7.58;57.90
10587;BME280;5341;47.606;7.576;2024-03-08T03:20:00;98321.84;;;7.56;57.76
10587;BME280;5341;47.606;7.576;2024-03-08T03:22:30;98314.88;;;7.55;57.76
10587;BME280;5341;47.606;7.576;2024-03-08T03:24:57;98321.19;;;7.54;57.94
10587;BME280;5341;47.606;7.576;2024-03-08T03:27:28;98317.69;;;7.54;57.91
10587;BME280;5341;47.606;7.576;2024-03-08T03:29:57;98322.38;;;7.52;57.94
10587;BME280;5341;47.606;7.576;2024-03-08T03:32:32;98319.84;;;7.50;57.66
10587;BME280;5341;47.606;7.576;2024-03-08T03:35:03;98308.38;;;7.50;57.73
10587;BME280;5341;47.606;7.576;2024-03-08T03:37:31;98313.06;;;7.48;57.93
10587;BME280;5341;47.606;7.576;2024-03-08T03:39:59;98310.75;;;7.45;57.80
10587;BME280;5341;47.606;7.576;2024-03-08T03:42:27;98308.09;;;7.45;57.84
10587;BME280;5341;47.606;7.576;2024-03-08T03:44:55;98306.44;;;7.44;57.73
10587;BME280;5341;47.606;7.576;2024-03-08T03:47:23;98303.97;;;7.42;57.74
10587;BME280;5341;47.606;7.576;2024-03-08T03:49:52;98296.16;;;7.41;57.94
10587;BME280;5341;47.606;7.576;2024-03-08T03:52:20;98303.31;;;7.40;57.87
10587;BME280;5341;47.606;7.576;2024-03-08T03:54:47;98294.50;;;7.40;57.98
10587;BME280;5341;47.606;7.576;2024-03-08T03:57:15;98290.16;;;7.39;58.00
10587;BME280;5341;47.606;7.576;2024-03-08T03:59:43;98291.97;;;7.38;57.80
10587;BME280;5341;47.606;7.576;2024-03-08T04:02:10;98298.31;;;7.37;57.86
10587;BME280;5341;47.606;7.576;2024-03-08T04:04:39;98291.34;;;7.36;57.99
10587;BME280;5341;47.606;7.576;2024-03-08T04:07:06;98292.34;;;7.35;58.08
10587;BME280;5341;47.606;7.576;2024-03-08T04:09:35;98298.66;;;7.34;57.73
10587;BME280;5341;47.606;7.576;2024-03-08T04:12:03;98290.88;;;7.32;57.75
10587;BME280;5341;47.606;7.576;2024-03-08T04:14:31;98288.38;;;7.31;57.95
10587;BME280;5341;47.606;7.576;2024-03-08T04:17:00;98285.91;;;7.29;57.74
10587;BME280;5341;47.606;7.576;2024-03-08T04:19:28;98282.41;;;7.29;57.50
10587;BME280;5341;47.606;7.576;2024-03-08T04:21:56;98290.56;;;7.27;57.64
10587;BME280;5341;47.606;7.576;2024-03-08T04:24:24;98282.72;;;7.26;57.67
10587;BME280;5341;47.606;7.576;2024-03-08T04:26:52;98281.06;;;7.25;57.70
10587;BME280;5341;47.606;7.576;2024-03-08T04:29:19;98283.72;;;7.25;57.80
10587;BME280;5341;47.606;7.576;2024-03-08T04:31:47;98276.75;;;7.24;57.85
10587;BME280;5341;47.606;7.576;2024-03-08T04:34:15;98278.59;;;7.23;58.15
10587;BME280;5341;47.606;7.576;2024-03-08T04:36:42;98281.25;;;7.23;58.26
10587;BME280;5341;47.606;7.576;2024-03-08T04:39:11;98282.06;;;7.24;58.14
10587;BME280;5341;47.606;7.576;2024-03-08T04:41:39;98276.59;;;7.25;58.27
10587;BME280;5341;47.606;7.576;2024-03-08T04:44:07;98272.91;;;7.26;58.05
10587;BME280;5341;47.606;7.576;2024-03-08T04:46:35;98279.94;;;7.27;58.46
10587;BME280;5341;47.606;7.576;2024-03-08T04:49:03;98278.91;;;7.28;58.34
10587;BME280;5341;47.606;7.576;2024-03-08T04:51:30;98274.44;;;7.29;58.65
10587;BME280;5341;47.606;7.576;2024-03-08T04:53:57;98273.44;;;7.30;58.64
10587;BME280;5341;47.606;7.576;2024-03-08T04:56:27;98272.41;;;7.31;58.96
10587;BME280;5341;47.606;7.576;2024-03-08T04:58:54;98260.78;;;7.32;58.56
10587;BME280;5341;47.606;7.576;2024-03-08T05:01:21;98269.41;;;7.34;58.95
10587;BME280;5341;47.606;7.576;2024-03-08T05:03:49;98278.22;;;7.34;58.71
10587;BME280;5341;47.606;7.576;2024-03-08T05:06:16;98268.41;;;7.35;59.06
10587;BME280;5341;47.606;7.576;2024-03-08T05:08:46;98271.88;;;7.35;59.20
10587;BME280;5341;47.606;7.576;2024-03-08T05:11:14;98278.88;;;7.37;59.04
10587;BME280;5341;47.606;7.576;2024-03-08T05:13:43;98271.72;;;7.37;59.14
10587;BME280;5341;47.606;7.576;2024-03-08T05:16:11;98269.88;;;7.38;59.03
10587;BME280;5341;47.606;7.576;2024-03-08T05:18:41;98272.53;;;7.38;59.38
10587;BME280;5341;47.606;7.576;2024-03-08T05:21:09;98272.38;;;7.39;59.09
10587;BME280;5341;47.606;7.576;2024-03-08T05:23:36;98276.84;;;7.39;59.31
10587;BME280;5341;47.606;7.576;2024-03-08T05:26:04;98274.03;;;7.40;59.23
10587;BME280;5341;47.606;7.576;2024-03-08T05:28:31;98271.22;;;7.42;59.46
10587;BME280;5341;47.606;7.576;2024-03-08T05:31:00;98274.03;;;7.40;59.36
10587;BME280;5341;47.606;7.576;2024-03-08T05:33:27;98273.03;;;7.41;59.02
10587;BME280;5341;47.606;7.576;2024-03-08T05:35:54;98277.34;;;7.42;59.09
10587;BME280;5341;47.606;7.576;2024-03-08T05:38:22;98265.72;;;7.43;59.15
10587;BME280;5341;47.606;7.576;2024-03-08T05:40:50;98260.38;;;7.43;59.20
10587;BME280;5341;47.606;7.576;2024-03-08T05:43:17;98267.38;;;7.44;59.45
10587;BME280;5341;47.606;7.576;2024-03-08T05:45:45;98256.72;;;7.44;59.11
10587;BME280;5341;47.606;7.576;2024-03-08T05:48:14;98252.22;;;7.45;59.36
10587;BME280;5341;47.606;7.576;2024-03-08T05:50:43;98256.53;;;7.46;59.42
10587;BME280;5341;47.606;7.576;2024-03-08T05:53:10;98257.56;;;7.45;59.38
10587;BME280;5341;47.606;7.576;2024-03-08T05:55:38;98245.91;;;7.46;59.44
10587;BME280;5341;47.606;7.576;2024-03-08T05:58:06;98246.91;;;7.45;59.60
10587;BME280;5341;47.606;7.576;2024-03-08T06:00:35;98244.06;;;7.46;59.96
10587;BME280;5341;47.606;7.576;2024-03-08T06:03:03;98244.06;;;7.46;59.71
10587;BME280;5341;47.606;7.576;2024-03-08T06:05:32;98240.41;;;7.47;59.80
10587;BME280;5341;47.606;7.576;2024-03-08T06:07:59;98243.06;;;7.47;59.61
10587;BME280;5341;47.606;7.576;2024-03-08T06:10:26;98236.91;;;7.47;59.74
10587;BME280;5341;47.606;7.576;2024-03-08T06:12:54;98242.06;;;7.48;59.69
10587;BME280;5341;47.606;7.576;2024-03-08T06:15:21;98242.06;;;7.48;59.44
10587;BME280;5341;47.606;7.576;2024-03-08T06:17:49;98239.41;;;7.48;59.75
10587;BME280;5341;47.606;7.576;2024-03-08T06:20:18;98232.25;;;7.49;59.43
10587;BME280;5341;47.606;7.576;2024-03-08T06:22:47;98228.56;;;7.50;59.92
10587;BME280;5341;47.606;7.576;2024-03-08T06:25:15;98223.25;;;7.50;59.63
10587;BME280;5341;47.606;7.576;2024-03-08T06:27:42;98220.59;;;7.50;59.75
10587;BME280;5341;47.606;7.576;2024-03-08T06:30:12;98210.78;;;7.50;59.72
10587;BME280;5341;47.606;7.576;2024-03-08T06:32:41;98204.63;;;7.50;59.50
10587;BME280;5341;47.606;7.576;2024-03-08T06:35:09;98197.66;;;7.49;59.43
10587;BME280;5341;47.606;7.576;2024-03-08T06:37:37;98213.28;;;7.52;59.35
10587;BME280;5341;47.606;7.576;2024-03-08T06:40:07;98214.28;;;7.51;59.71
10587;BME280;5341;47.606;7.576;2024-03-08T06:42:39;98211.47;;;7.52;59.33
10587;BME280;5341;47.606;7.576;2024-03-08T06:45:08;98211.47;;;7.52;59.42
10587;BME280;5341;47.606;7.576;2024-03-08T06:47:36;98219.44;;;7.52;59.50
10587;BME280;5341;47.606;7.576;2024-03-08T06:50:04;98212.09;;;7.54;59.65
10587;BME280;5341;47.606;7.576;2024-03-08T06:52:31;98207.63;;;7.55;59.49
10587;BME280;5341;47.606;7.576;2024-03-08T06:54:59;98215.59;;;7.55;59.68
10587;BME280;5341;47.606;7.576;2024-03-08T06:57:28;98221.56;;;7.57;59.65
10587;BME280;5341;47.606;7.576;2024-03-08T06:59:56;98224.88;;;7.59;59.72
10587;BME280;5341;47.606;7.576;2024-03-08T07:02:24;98225.69;;;7.59;59.69
10587;BME280;5341;47.606;7.576;2024-03-08T07:04:51;98226.53;;;7.60;59.76
10587;BME280;5341;47.606;7.576;2024-03-08T07:07:18;98226.34;;;7.61;59.81
10587;BME280;5341;47.606;7.576;2024-03-08T07:09:47;98231.47;;;7.63;59.61
10587;BME280;5341;47.606;7.576;2024-03-08T07:12:15;98224.50;;;7.62;59.71
10587;BME280;5341;47.606;7.576;2024-03-08T07:14:44;98217.34;;;7.62;59.71
10587;BME280;5341;47.606;7.576;2024-03-08T07:17:12;98217.19;;;7.64;59.91
10587;BME280;5341;47.606;7.576;2024-03-08T07:19:39;98219.88;;;7.64;59.76
10587;BME280;5341;47.606;7.576;2024-03-08T07:22:06;98209.22;;;7.64;59.59
10587;BME280;5341;47.606;7.576;2024-03-08T07:24:35;98217.03;;;7.66;59.81
10587;BME280;5341;47.606;7.576;2024-03-08T07:27:21;98214.38;;;7.66;59.98
10587;BME280;5341;47.606;7.576;2024-03-08T07:29:50;98215.00;;;7.68;59.70
10587;BME280;5341;47.606;7.576;2024-03-08T07:32:18;98217.50;;;7.69;59.88
10587;BME280;5341;47.606;7.576;2024-03-08T07:34:47;98218.31;;;7.70;59.73
10587;BME280;5341;47.606;7.576;2024-03-08T07:37:16;98219.78;;;7.72;59.77
10587;BME280;5341;47.606;7.576;2024-03-08T07:39:44;98216.94;;;7.74;59.38
10587;BME280;5341;47.606;7.576;2024-03-08T07:42:12;98215.78;;;7.76;59.39
10587;BME280;5341;47.606;7.576;2024-03-08T07:44:39;98226.25;;;7.78;59.68
10587;BME280;5341;47.606;7.576;2024-03-08T07:47:08;98215.44;;;7.79;59.61
10587;BME280;5341;47.606;7.576;2024-03-08T07:49:35;98218.09;;;7.79;59.63
10587;BME280;5341;47.606;7.576;2024-03-08T07:52:03;98213.41;;;7.81;59.54
10587;BME280;5341;47.606;7.576;2024-03-08T07:54:33;98206.25;;;7.82;59.68
10587;BME280;5341;47.606;7.576;2024-03-08T07:57:01;98210.75;;;7.81;59.64
10587;BME280;5341;47.606;7.576;2024-03-08T07:59:30;98203.59;;;7.82;59.71
10587;BME280;5341;47.606;7.576;2024-03-08T08:01:57;98205.25;;;7.83;59.75
10587;BME280;5341;47.606;7.576;2024-03-08T08:04:26;98197.25;;;7.83;59.56
10587;BME280;5341;47.606;7.576;2024-03-08T08:06:53;98201.56;;;7.84;59.49
10587;BME280;5341;47.606;7.576;2024-03-08T08:09:21;98201.56;;;7.84;59.47
10587;BME280;5341;47.606;7.576;2024-03-08T08:12:00;98182.09;;;7.83;59.47
10587;BME280;5341;47.606;7.576;2024-03-08T08:14:28;98194.41;;;7.84;59.30
10587;BME280;5341;47.606;7.576;2024-03-08T08:16:56;98189.09;;;7.84;59.23
10587;BME280;5341;47.606;7.576;2024-03-08T08:19:27;98190.75;;;7.85;59.25
10587;BME280;5341;47.606;7.576;2024-03-08T08:21:55;98190.56;;;7.87;59.44
10587;BME280;5341;47.606;7.576;2024-03-08T08:24:23;98192.06;;;7.89;59.48
10587;BME280;5341;47.606;7.576;2024-03-08T08:26:50;98186.38;;;7.92;59.04
10587;BME280;5341;47.606;7.576;2024-03-08T08:29:18;98186.81;;;7.96;59.20
10587;BME280;5341;47.606;7.576;2024-03-08T08:31:46;98180.31;;;7.99;59.36
10587;BME280;5341;47.606;7.576;2024-03-08T08:34:15;98175.28;;;8.04;59.28
10587;BME280;5341;47.606;7.576;2024-03-08T08:36:46;98171.44;;;8.06;59.28
10587;BME280;5341;47.606;7.576;2024-03-08T08:39:13;98170.88;;;8.11;59.59
10587;BME280;5341;47.606;7.576;2024-03-08T08:41:42;98169.34;;;8.16;59.46
10587;BME280;5341;47.606;7.576;2024-03-08T08:44:09;98171.44;;;8.21;59.58
10587;BME280;5341;47.606;7.576;2024-03-08T08:46:38;98164.78;;;8.25;59.50
10587;BME280;5341;47.606;7.576;2024-03-08T08:49:05;98169.53;;;8.30;59.61
10587;BME280;5341;47.606;7.576;2024-03-08T08:51:36;98174.34;;;8.34;59.35
10587;BME280;5341;47.606;7.576;2024-03-08T08:54:05;98168.66;;;8.37;59.39
10587;BME280;5341;47.606;7.576;2024-03-08T08:56:32;98174.25;;;8.42;59.53
10587;BME280;5341;47.606;7.576;2024-03-08T08:59:01;98177.19;;;8.47;59.53
10587;BME280;5341;47.606;7.576;2024-03-08T09:01:30;98180.34;;;8.51;59.42
10587;BME280;5341;47.606;7.576;2024-03-08T09:03:58;98173.44;;;8.57;59.52
10587;BME280;5341;47.606;7.576;2024-03-08T09:06:26;98163.06;;;8.62;59.35
10587;BME280;5341;47.606;7.576;2024-03-08T09:08:53;98167.47;;;8.69;59.48
10587;BME280;5341;47.606;7.576;2024-03-08T09:11:23;98165.09;;;8.74;59.31
10587;BME280;5341;47.606;7.576;2024-03-08T09:13:51;98157.97;;;8.81;59.37
10587;BME280;5341;47.606;7.576;2024-03-08T09:16:18;98153.75;;;8.87;59.39
10587;BME280;5341;47.606;7.576;2024-03-08T09:18:46;98154.47;;;8.96;59.58
10587;BME280;5341;47.606;7.576;2024-03-08T09:21:14;98153.72;;;9.02;59.05
10587;BME280;5341;47.606;7.576;2024-03-08T09:23:41;98150.31;;;9.08;59.11
10587;BME280;5341;47.606;7.576;2024-03-08T09:26:10;98146.91;;;9.14;59.09
10587;BME280;5341;47.606;7.576;2024-03-08T09:28:40;98147.97;;;9.20;58.79
10587;BME280;5341;47.606;7.576;2024-03-08T09:31:07;98143.75;;;9.25;58.69
10587;BME280;5341;47.606;7.576;2024-03-08T09:33:37;98135.16;;;9.30;58.38
10587;BME280;5341;47.606;7.576;2024-03-08T09:36:06;98137.91;;;9.36;58.46
10587;BME280;5341;47.606;7.576;2024-03-08T09:38:33;98142.66;;;9.41;58.44
10587;BME280;5341;47.606;7.576;2024-03-08T09:41:01;98142.28;;;9.44;58.16
10587;BME280;5341;47.606;7.576;2024-03-08T09:43:29;98134.53;;;9.49;57.78
10587;BME280;5341;47.606;7.576;2024-03-08T09:45:59;98134.78;;;9.54;57.43
10587;BME280;5341;47.606;7.576;2024-03-08T09:48:27;98133.41;;;9.58;57.71
10587;BME280;5341;47.606;7.576;2024-03-08T09:50:55;98131.78;;;9.64;57.94
10587;BME280;5341;47.606;7.576;2024-03-08T09:53:22;98130.84;;;9.72;57.44
10587;BME280;5341;47.606;7.576;2024-03-08T09:55:50;98129.88;;;9.79;57.57
10587;BME280;5341;47.606;7.576;2024-03-08T09:58:17;98126.44;;;9.85;56.93
10587;BME280;5341;47.606;7.576;2024-03-08T10:01:00;98130.78;;;9.93;57.19
10587;BME280;5341;47.606;7.576;2024-03-08T10:03:28;98117.50;;;9.99;57.42
10587;BME280;5341;47.606;7.576;2024-03-08T10:05:56;98114.69;;;10.08;57.25
10587;BME280;5341;47.606;7.576;2024-03-08T10:08:26;98112.25;;;10.13;56.66
10587;BME280;5341;47.606;7.576;2024-03-08T10:10:55;98108.00;;;10.18;56.74
10587;BME280;5341;47.606;7.576;2024-03-08T10:13:24;98107.03;;;10.26;56.65
10587;BME280;5341;47.606;7.576;2024-03-08T10:15:53;98101.75;;;10.33;57.18
10587;BME280;5341;47.606;7.576;2024-03-08T10:18:22;98095.59;;;10.39;56.73
10587;BME280;5341;47.606;7.576;2024-03-08T10:21:02;98101.19;;;10.44;56.36
10587;BME280;5341;47.606;7.576;2024-03-08T10:23:31;98094.22;;;10.49;55.92
10587;BME280;5341;47.606;7.576;2024-03-08T10:26:10;98096.13;;;10.55;55.28
10587;BME280;5341;47.606;7.576;2024-03-08T10:28:36;98093.03;;;10.59;55.76
10587;BME280;5341;47.606;7.576;2024-03-08T10:31:03;98081.72;;;10.63;55.74
10587;BME280;5341;47.606;7.576;2024-03-08T10:33:33;98081.97;;;10.68;55.06
10587;BME280;5341;47.606;7.576;2024-03-08T10:36:01;98073.97;;;10.75;55.34
10587;BME280;5341;47.606;7.576;2024-03-08T10:38:31;98072.97;;;10.82;55.26
10587;BME280;5341;47.606;7.576;2024-03-08T10:41:02;98070.13;;;10.91;55.15
10587;BME280;5341;47.606;7.576;2024-03-08T10:43:35;98066.63;;;10.97;55.17
10587;BME280;5341;47.606;7.576;2024-03-08T10:46:15;98064.81;;;11.04;55.11
10587;BME280;5341;47.606;7.576;2024-03-08T10:48:47;98055.75;;;11.11;55.17
10587;BME280;5341;47.606;7.576;2024-03-08T10:51:17;98058.03;;;11.21;55.14
10587;BME280;5341;47.606;7.576;2024-03-08T10:53:47;98062.78;;;11.32;54.84
10587;BME280;5341;47.606;7.576;2024-03-08T10:56:17;98069.81;;;11.40;54.48
10587;BME280;5341;47.606;7.576;2024-03-08T10:58:44;98053.75;;;11.47;54.91
10587;BME280;5341;47.606;7.576;2024-03-08T11:01:13;98052.53;;;11.56;54.34
10587;BME280;5341;47.606;7.576;2024-03-08T11:03:45;98043.47;;;11.63;54.52
10587;BME280;5341;47.606;7.576;2024-03-08T11:06:16;98042.19;;;11.72;54.34
10587;BME280;5341;47.606;7.576;2024-03-08T11:08:44;98037.06;;;11.78;53.78
10587;BME280;5341;47.606;7.576;2024-03-08T11:11:25;98021.22;;;11.83;53.15
10587;BME280;5341;47.606;7.576;2024-03-08T11:14:03;98021.44;;;11.88;53.77
10587;BME280;5341;47.606;7.576;2024-03-08T11:16:38;98024.69;;;11.96;53.39
10587;BME280;5341;47.606;7.576;2024-03-08T11:22:04;98014.16;;;12.15;54.02
10587;BME280;5341;47.606;7.576;2024-03-08T11:24:37;98012.03;;;12.23;53.28
10587;BME280;5341;47.606;7.576;2024-03-08T11:27:08;98006.88;;;12.28;52.97
10587;BME280;5341;47.606;7.576;2024-03-08T11:29:37;97996.13;;;12.35;53.10
10587;BME280;5341;47.606;7.576;2024-03-08T11:32:07;97992.59;;;12.41;52.88
10587;BME280;5341;47.606;7.576;2024-03-08T11:34:36;97984.94;;;12.45;52.57
10587;BME280;5341;47.606;7.576;2024-03-08T11:37:11;97976.28;;;12.49;52.63
10587;BME280;5341;47.606;7.576;2024-03-08T11:39:47;97971.09;;;12.54;52.44
10587;BME280;5341;47.606;7.576;2024-03-08T11:42:16;97960.53;;;12.59;52.58
10587;BME280;5341;47.606;7.576;2024-03-08T11:44:44;97962.97;;;12.68;52.33
10587;BME280;5341;47.606;7.576;2024-03-08T11:47:12;97961.91;;;12.75;52.65
10587;BME280;5341;47.606;7.576;2024-03-08T11:49:40;97957.31;;;12.82;52.13
10587;BME280;5341;47.606;7.576;2024-03-08T11:52:12;97943.47;;;12.85;51.74
10587;BME280;5341;47.606;7.576;2024-03-08T11:54:41;97940.13;;;12.90;51.89
10587;BME280;5341;47.606;7.576;2024-03-08T11:57:09;97943.19;;;12.94;51.78
10587;BME280;5341;47.606;7.576;2024-03-08T11:59:36;97944.63;;;12.96;51.00
10587;BME280;5341;47.606;7.576;2024-03-08T12:02:05;97947.72;;;13.00;51.00
10587;BME280;5341;47.606;7.576;2024-03-08T12:04:33;97946.22;;;13.04;50.87
10587;BME280;5341;47.606;7.576;2024-03-08T12:07:02;97933.19;;;13.07;50.83
10587;BME280;5341;47.606;7.576;2024-03-08T12:09:36;97923.44;;;13.13;50.85
10587;BME280;5341;47.606;7.576;2024-03-08T12:12:05;97919.91;;;13.19;50.89
10587;BME280;5341;47.606;7.576;2024-03-08T12:14:34;97911.81;;;13.26;50.77
10587;BME280;5341;47.606;7.576;2024-03-08T12:17:03;97907.63;;;13.30;50.43
10587;BME280;5341;47.606;7.576;2024-03-08T12:19:31;97904.06;;;13.36;50.47
10587;BME280;5341;47.606;7.576;2024-03-08T12:22:07;97904.00;;;13.42;50.29
10587;BME280;5341;47.606;7.576;2024-03-08T12:24:38;97897.16;;;13.46;50.27
10587;BME280;5341;47.606;7.576;2024-03-08T12:27:18;97891.94;;;13.52;50.10
10587;BME280;5341;47.606;7.576;2024-03-08T12:29:46;97880.50;;;13.56;50.09
10587;BME280;5341;47.606;7.576;2024-03-08T12:32:13;97875.06;;;13.63;49.99
10587;BME280;5341;47.606;7.576;2024-03-08T12:34:41;97880.81;;;13.66;50.00
10587;BME280;5341;47.606;7.576;2024-03-08T12:37:08;97878.31;;;13.71;49.94
10587;BME280;5341;47.606;7.576;2024-03-08T12:39:40;97873.06;;;13.76;49.49
10587;BME280;5341;47.606;7.576;2024-03-08T12:42:12;97868.88;;;13.81;49.67
10587;BME280;5341;47.606;7.576;2024-03-08T12:44:40;97865.53;;;13.85;49.56
10587;BME280;5341;47.606;7.576;2024-03-08T12:47:09;97857.81;;;13.89;49.54
10587;BME280;5341;47.606;7.576;2024-03-08T12:49:36;97849.09;;;13.93;49.52
10587;BME280;5341;47.606;7.576;2024-03-08T12:52:09;97839.75;;;13.96;49.41
10587;BME280;5341;47.606;7.576;2024-03-08T12:54:39;97828.56;;;13.99;49.14
10587;BME280;5341;47.606;7.576;2024-03-08T12:57:07;97828.31;;;14.00;49.13
10587;BME280;5341;47.606;7.576;2024-03-08T12:59:34;97818.16;;;14.02;48.89
10587;BME280;5341;47.606;7.576;2024-03-08T13:02:02;97810.47;;;14.06;49.06
10587;BME280;5341;47.606;7.576;2024-03-08T13:04:31;97815.50;;;14.14;49.32
10587;BME280;5341;47.606;7.576;2024-03-08T13:06:58;97822.69;;;14.20;49.08
10587;BME280;5341;47.606;7.576;2024-03-08T13:09:27;97818.25;;;14.26;49.05
10587;BME280;5341;47.606;7.576;2024-03-08T13:11:56;97810.09;;;14.32;49.29
10587;BME280;5341;47.606;7.576;2024-03-08T13:14:26;97804.59;;;14.39;48.86
10587;BME280;5341;47.606;7.576;2024-03-08T13:16:58;97802.69;;;14.46;48.85
10587;BME280;5341;47.606;7.576;2024-03-08T13:19:25;97793.66;;;14.52;48.86
10587;BME280;5341;47.606;7.576;2024-03-08T13:21:53;97792.53;;;14.60;48.48
10587;BME280;5341;47.606;7.576;2024-03-08T13:24:22;97793.47;;;14.65;48.47
10587;BME280;5341;47.606;7.576;2024-03-08T13:26:50;97780.72;;;14.73;48.62
10587;BME280;5341;47.606;7.576;2024-03-08T13:29:19;97783.53;;;14.78;48.53
10587;BME280;5341;47.606;7.576;2024-03-08T13:31:47;97775.59;;;14.83;48.50
10587;BME280;5341;47.606;7.576;2024-03-08T13:34:17;97768.09;;;14.85;48.43
10587;BME280;5341;47.606;7.576;2024-03-08T13:36:45;97774.28;;;14.85;48.06
10587;BME280;5341;47.606;7.576;2024-03-08T13:39:12;97771.38;;;14.87;47.90
10587;BME280;5341;47.606;7.576;2024-03-08T13:41:42;97771.94;;;14.89;47.79
10587;BME280;5341;47.606;7.576;2024-03-08T13:44:10;97770.06;;;14.89;47.68